createdAt,value
2018-04-16T00:01:02.305Z,161828.13
2018-04-16T00:03:29.859Z,161811.12
2018-04-16T00:05:57.458Z,161808.53
2018-04-16T00:08:25.219Z,161824.22
2018-04-16T00:10:52.833Z,161843.88
2018-04-16T00:13:20.778Z,161868.75
2018-04-16T00:15:48.333Z,161871.34
2018-04-16T00:18:16.019Z,161888.41
2018-04-16T00:20:43.581Z,161909.36
2018-04-16T00:23:11.122Z,161949.94
2018-04-16T00:25:38.719Z,161968.30
2018-04-16T00:28:06.311Z,161944.72
2018-04-16T00:30:33.887Z,161951.91
2018-04-16T00:33:07.147Z,161955.20
2018-04-16T00:35:40.566Z,161937.50
2018-04-16T00:38:13.817Z,161945.38
2018-04-16T00:40:47.130Z,161949.28
2018-04-16T00:43:20.125Z,161962.38
2018-04-16T00:45:53.229Z,161980.09
2018-04-16T00:48:26.428Z,161991.87
2018-04-16T00:50:59.586Z,162029.19
2018-04-16T00:53:44.909Z,162044.25
2018-04-16T00:56:18.009Z,162062.61
2018-04-16T00:58:51.448Z,162068.47
2018-04-16T01:01:24.433Z,162086.13
2018-04-16T01:03:57.884Z,162099.94
2018-04-16T01:06:31.049Z,162090.75
2018-04-16T01:09:04.189Z,162067.81
2018-04-16T01:11:37.229Z,162048.81
2018-04-16T01:14:10.366Z,162045.55
2018-04-16T01:16:43.613Z,162063.25
2018-04-16T01:19:16.886Z,162072.39
2018-04-16T01:21:50.069Z,162078.95
2018-04-16T01:24:23.290Z,162073.03
2018-04-16T01:26:56.388Z,162082.87
2018-04-16T01:29:29.501Z,162056.69
2018-04-16T01:32:02.657Z,162050.81
2018-04-16T01:34:35.805Z,162023.92
2018-04-16T01:37:09.229Z,161991.22
2018-04-16T01:42:49.767Z,161968.30
2018-04-16T01:45:22.938Z,161950.59
2018-04-16T01:47:56.473Z,161947.98
2018-04-16T01:50:29.723Z,161919.19
2018-04-16T01:53:02.833Z,161894.97
2018-04-16T01:55:36.393Z,161870.05
2018-04-16T01:58:09.567Z,161858.27
2018-04-16T02:00:42.804Z,161831.44
2018-04-16T02:03:16.305Z,161806.56
2018-04-16T02:05:49.513Z,161809.19
2018-04-16T02:08:22.762Z,161807.88
2018-04-16T02:13:57.895Z,161822.92
2018-04-16T02:16:31.129Z,161849.75
2018-04-16T02:19:04.199Z,161881.89
2018-04-16T02:21:37.624Z,161881.23
2018-04-16T02:24:11.137Z,161903.44
2018-04-16T02:26:44.250Z,161893.67
2018-04-16T02:29:17.598Z,161930.33
2018-04-16T02:31:50.777Z,161927.02
2018-04-16T02:34:24.197Z,161914.58
2018-04-16T02:36:57.411Z,161909.36
2018-04-16T02:39:30.781Z,161884.50
2018-04-16T02:42:04.092Z,161859.56
2018-04-16T02:44:37.289Z,161822.92
2018-04-16T02:47:10.429Z,161764.66
2018-04-16T02:49:43.912Z,161741.75
2018-04-16T02:52:17.227Z,161724.75
2018-04-16T02:54:50.498Z,161702.50
2018-04-16T02:57:24.063Z,161680.25
2018-04-16T02:59:57.249Z,161678.28
2018-04-16T03:02:30.530Z,161686.16
2018-04-16T03:05:03.537Z,161712.97
2018-04-16T03:07:36.971Z,161724.11
2018-04-16T03:10:10.177Z,161734.58
2018-04-16T03:12:43.603Z,161745.72
2018-04-16T03:15:16.870Z,161711.03
2018-04-16T03:17:50.103Z,161637.75
2018-04-16T03:20:23.203Z,161605.67
2018-04-16T03:22:56.349Z,161579.52
2018-04-16T03:25:29.678Z,161528.50
2018-04-16T03:28:02.785Z,161559.88
2018-04-16T03:30:36.054Z,161604.38
2018-04-16T03:33:09.349Z,161652.13
2018-04-16T03:35:42.727Z,161670.42
2018-04-16T03:38:16.019Z,161660.66
2018-04-16T03:40:49.176Z,161647.52
2018-04-16T03:43:22.382Z,161648.87
2018-04-16T03:45:55.458Z,161681.55
2018-04-16T03:48:28.702Z,161646.87
2018-04-16T03:51:01.980Z,161611.59
2018-04-16T03:53:31.437Z,161608.94
2018-04-16T03:56:00.606Z,161620.06
2018-04-16T03:58:28.383Z,161639.05
2018-04-16T04:00:55.975Z,161646.87
2018-04-16T04:03:23.741Z,161642.95
2018-04-16T04:05:51.548Z,161624.66
2018-04-16T04:08:19.243Z,161610.88
2018-04-16T04:10:46.817Z,161619.41
2018-04-16T04:13:14.394Z,161597.81
2018-04-16T04:15:41.984Z,161592.59
2018-04-16T04:18:09.787Z,161603.06
2018-04-16T04:20:37.338Z,161593.91
2018-04-16T04:23:17.225Z,161601.77
2018-04-16T04:25:56.839Z,161574.95
2018-04-16T04:28:36.437Z,161548.09
2018-04-16T04:31:03.985Z,161540.28
2018-04-16T04:33:31.549Z,161560.53
2018-04-16T04:35:59.345Z,161582.13
2018-04-16T04:38:26.893Z,161561.83
2018-04-16T04:40:54.474Z,161543.53
2018-04-16T04:43:22.039Z,161455.88
2018-04-16T04:45:50.164Z,161418.59
2018-04-16T04:48:17.849Z,161409.44
2018-04-16T04:50:45.511Z,161403.53
2018-04-16T04:53:13.244Z,161484.67
2018-04-16T04:55:40.828Z,161499.70
2018-04-16T04:58:08.374Z,161512.13
2018-04-16T05:00:35.977Z,161535.67
2018-04-16T05:03:03.796Z,161574.95
2018-04-16T05:05:31.348Z,161584.72
2018-04-16T05:07:58.947Z,161603.06
2018-04-16T05:10:26.503Z,161634.44
2018-04-16T05:12:54.292Z,161650.83
2018-04-16T05:15:21.879Z,161639.70
2018-04-16T05:17:49.499Z,161633.13
2018-04-16T05:20:17.234Z,161620.06
2018-04-16T05:22:44.879Z,161630.53
2018-04-16T05:25:12.670Z,161675.69
2018-04-16T05:27:40.859Z,161693.98
2018-04-16T05:30:08.534Z,161712.97
2018-04-16T05:32:36.088Z,161751.58
2018-04-16T05:35:03.697Z,161785.63
2018-04-16T05:37:31.282Z,161813.09
2018-04-16T05:39:58.861Z,161769.22
2018-04-16T05:42:26.452Z,161805.22
2018-04-16T05:44:54.024Z,161809.19
2018-04-16T05:47:21.854Z,161813.09
2018-04-16T05:49:49.454Z,161779.05
2018-04-16T05:52:17.024Z,161735.88
2018-04-16T05:54:44.878Z,161646.22
2018-04-16T05:57:12.493Z,161638.39
2018-04-16T05:59:40.129Z,161644.25
2018-04-16T06:02:07.681Z,161615.50
2018-04-16T06:04:35.482Z,161644.25
2018-04-16T06:07:03.067Z,161706.41
2018-04-16T06:09:30.615Z,161749.62
2018-04-16T06:11:58.190Z,161819.00
2018-04-16T06:14:25.784Z,161832.09
2018-04-16T06:16:53.412Z,161788.88
2018-04-16T06:19:20.990Z,161840.56
2018-04-16T06:21:48.559Z,161873.97
2018-04-16T06:24:16.338Z,161917.89
2018-04-16T06:26:44.057Z,161955.20
2018-04-16T06:29:11.677Z,162189.66
2018-04-16T06:31:39.505Z,162333.86
2018-04-16T06:34:07.282Z,162393.50
2018-04-16T06:36:34.872Z,162347.63
2018-04-16T06:39:02.438Z,162135.97
2018-04-16T06:41:30.068Z,162118.25
2018-04-16T06:43:57.879Z,162297.16
2018-04-16T06:46:25.442Z,162132.00
2018-04-16T06:48:53.028Z,162063.25
2018-04-16T06:51:20.695Z,162150.36
2018-04-16T06:53:48.890Z,162305.00
2018-04-16T06:56:16.674Z,162229.59
2018-04-16T06:58:44.221Z,162341.03
2018-04-16T07:01:11.959Z,162466.27
2018-04-16T07:03:39.695Z,162407.27
2018-04-16T07:06:07.482Z,162234.88
2018-04-16T07:08:35.253Z,162284.06
2018-04-16T07:11:02.901Z,162341.03
2018-04-16T07:13:30.492Z,162236.83
2018-04-16T07:15:58.116Z,162314.83
2018-04-16T07:18:25.708Z,162135.97
2018-04-16T07:20:53.315Z,162278.78
2018-04-16T07:23:20.996Z,162195.53
2018-04-16T07:25:48.677Z,162171.98
2018-04-16T07:28:16.346Z,162200.80
2018-04-16T07:30:44.123Z,162276.83
2018-04-16T07:33:11.681Z,162241.45
2018-04-16T07:35:39.380Z,162324.03
2018-04-16T07:38:06.956Z,162204.06
2018-04-16T07:40:34.682Z,162280.09
2018-04-16T07:43:02.254Z,162371.22
2018-04-16T07:45:29.851Z,162380.41
2018-04-16T07:47:57.421Z,162314.19
2018-04-16T07:50:24.986Z,162389.55
2018-04-16T07:52:52.559Z,162436.09
2018-04-16T07:55:20.126Z,162471.50
2018-04-16T07:57:47.693Z,162390.84
2018-04-16T08:00:15.302Z,162310.91
2018-04-16T08:02:42.842Z,162335.81
2018-04-16T08:05:10.385Z,162403.30
2018-04-16T08:07:37.975Z,162496.41
2018-04-16T08:10:05.539Z,162608.56
2018-04-16T08:12:33.160Z,162535.72
2018-04-16T08:15:00.781Z,162485.91
2018-04-16T08:17:28.632Z,162609.88
2018-04-16T08:19:56.202Z,162535.06
2018-04-16T08:22:23.982Z,162592.84
2018-04-16T08:24:51.548Z,162389.55
2018-04-16T08:27:19.248Z,162488.52
2018-04-16T08:29:46.869Z,162537.69
2018-04-16T08:32:14.579Z,162495.09
2018-04-16T08:34:42.361Z,162500.31
2018-04-16T08:37:09.921Z,162595.45
2018-04-16T08:39:37.504Z,162653.83
2018-04-16T08:42:05.152Z,162766.63
2018-04-16T08:44:32.741Z,162646.59
2018-04-16T08:47:00.296Z,162779.09
2018-04-16T08:49:27.898Z,162577.13
2018-04-16T08:51:55.541Z,162572.50
2018-04-16T08:54:23.357Z,162695.12
2018-04-16T08:56:51.204Z,162889.37
2018-04-16T08:59:18.765Z,162664.98
2018-04-16T09:01:46.330Z,162811.27
2018-04-16T09:04:13.922Z,162991.13
2018-04-16T09:06:41.493Z,162855.19
2018-04-16T09:09:09.210Z,162720.05
2018-04-16T09:11:37.006Z,163039.70
2018-04-16T09:14:04.562Z,163069.22
2018-04-16T09:16:32.199Z,163074.45
2018-04-16T09:18:59.816Z,163249.20
2018-04-16T09:21:27.363Z,163043.62
2018-04-16T09:23:54.952Z,163024.56
2018-04-16T09:26:22.522Z,163008.19
2018-04-16T09:28:50.305Z,163138.89
2018-04-16T09:31:17.882Z,163149.41
2018-04-16T09:33:45.465Z,163146.73
2018-04-16T09:36:13.255Z,163175.66
2018-04-16T09:38:40.969Z,163178.27
2018-04-16T09:41:08.680Z,163214.39
2018-04-16T09:43:36.463Z,162995.06
2018-04-16T09:46:04.028Z,163154.63
2018-04-16T09:48:32.224Z,163218.97
2018-04-16T09:50:59.778Z,163168.41
2018-04-16T09:53:27.349Z,163190.09
2018-04-16T09:55:55.067Z,163243.92
2018-04-16T09:58:22.632Z,163220.28
2018-04-16T10:00:52.006Z,162995.06
2018-04-16T10:03:19.603Z,163197.98
2018-04-16T10:05:48.207Z,163270.19
2018-04-16T10:08:15.921Z,163310.28
2018-04-16T10:10:43.474Z,163337.20
2018-04-16T10:13:11.047Z,163337.20
2018-04-16T10:15:38.693Z,163548.81
2018-04-16T10:18:06.296Z,163260.38
2018-04-16T10:20:34.032Z,163166.45
2018-04-16T10:23:01.707Z,163124.39
2018-04-16T10:25:29.918Z,163031.16
2018-04-16T10:27:57.695Z,162969.47
2018-04-16T10:30:25.280Z,162960.25
2018-04-16T10:32:52.856Z,163014.77
2018-04-16T10:35:20.411Z,163205.84
2018-04-16T10:37:48.113Z,163067.92
2018-04-16T10:40:15.659Z,163047.55
2018-04-16T10:42:43.447Z,163202.56
2018-04-16T10:45:11.023Z,163050.81
2018-04-16T10:47:38.798Z,163275.47
2018-04-16T10:50:06.342Z,163272.84
2018-04-16T10:52:33.919Z,163440.38
2018-04-16T10:55:01.721Z,163058.06
2018-04-16T10:57:29.370Z,163171.69
2018-04-16T10:59:56.989Z,162982.59
2018-04-16T11:02:24.693Z,163186.17
2018-04-16T11:04:52.267Z,163116.50
2018-04-16T11:07:19.858Z,163104.03
2018-04-16T11:09:47.671Z,163119.77
2018-04-16T11:12:15.272Z,162953.02
2018-04-16T11:14:42.978Z,162998.33
2018-04-16T11:17:10.554Z,162947.14
2018-04-16T11:19:38.137Z,163123.05
2018-04-16T11:22:05.684Z,162984.55
2018-04-16T11:24:33.271Z,163039.70
2018-04-16T11:27:01.097Z,163329.31
2018-04-16T11:29:28.930Z,163361.52
2018-04-16T11:31:56.494Z,163169.72
2018-04-16T11:34:24.052Z,163010.14
2018-04-16T11:36:51.840Z,162993.75
2018-04-16T11:39:19.394Z,163074.45
2018-04-16T11:41:47.147Z,162975.34
2018-04-16T11:44:14.730Z,163085.63
2018-04-16T11:46:42.285Z,163238.03
2018-04-16T11:49:09.992Z,163226.88
2018-04-16T11:51:37.535Z,163185.47
2018-04-16T11:54:05.322Z,163270.84
2018-04-16T11:56:32.891Z,163333.28
2018-04-16T11:59:00.468Z,163441.03
2018-04-16T12:01:28.470Z,163624.39
2018-04-16T12:03:56.030Z,163267.56
2018-04-16T12:06:23.600Z,163299.13
2018-04-16T12:08:51.371Z,163518.61
2018-04-16T12:11:19.159Z,163420.05
2018-04-16T12:13:46.968Z,163318.80
2018-04-16T12:16:14.538Z,163257.05
2018-04-16T12:18:42.109Z,163174.34
2018-04-16T12:21:09.670Z,163404.25
2018-04-16T12:23:37.215Z,163225.56
2018-04-16T12:26:04.968Z,163282.66
2018-04-16T12:28:32.506Z,163211.13
2018-04-16T12:31:00.350Z,163295.14
2018-04-16T12:33:27.896Z,163371.37
2018-04-16T12:35:55.633Z,163479.19
2018-04-16T12:38:23.382Z,163503.45
2018-04-16T12:40:50.960Z,163519.25
2018-04-16T12:43:18.666Z,163581.69
2018-04-16T12:45:46.229Z,163485.73
2018-04-16T12:48:13.784Z,163371.37
2018-04-16T12:50:41.355Z,163397.64
2018-04-16T12:53:08.896Z,163461.42
2018-04-16T12:55:36.503Z,163496.25
2018-04-16T12:58:04.070Z,163416.72
2018-04-16T13:00:31.621Z,163392.36
2018-04-16T13:02:59.420Z,163468.02
2018-04-16T13:05:26.975Z,163596.80
2018-04-16T13:07:54.708Z,163589.59
2018-04-16T13:10:22.454Z,163536.33
2018-04-16T13:12:50.040Z,163641.50
2018-04-16T13:15:17.593Z,163663.92
2018-04-16T13:17:45.286Z,163536.33
2018-04-16T13:20:13.078Z,163529.78
2018-04-16T13:22:40.828Z,163545.53
2018-04-16T13:25:08.606Z,163332.63
2018-04-16T13:27:36.160Z,163289.91
2018-04-16T13:30:03.957Z,163301.08
2018-04-16T13:32:31.512Z,163278.73
2018-04-16T13:34:59.093Z,163245.88
2018-04-16T13:37:27.085Z,163163.83
2018-04-16T13:39:54.866Z,163343.75
2018-04-16T13:42:22.591Z,163382.55
2018-04-16T13:44:50.422Z,163569.86
2018-04-16T13:47:18.198Z,163371.37
2018-04-16T13:49:45.770Z,163321.45
2018-04-16T13:52:13.549Z,163356.94
2018-04-16T13:54:41.252Z,163197.98
2018-04-16T13:57:08.789Z,163317.48
2018-04-16T13:59:36.326Z,163301.08
2018-04-16T14:02:03.939Z,163379.88
2018-04-16T14:04:31.501Z,163127.02
2018-04-16T14:06:59.057Z,163218.31
2018-04-16T14:09:26.659Z,163229.48
2018-04-16T14:11:54.198Z,163324.72
2018-04-16T14:14:22.017Z,163238.69
2018-04-16T14:16:49.609Z,163305.00
2018-04-16T14:19:17.145Z,163449.59
2018-04-16T14:21:44.741Z,163498.88
2018-04-16T14:24:12.300Z,163525.80
2018-04-16T14:26:39.994Z,163650.77
2018-04-16T14:29:07.770Z,163504.81
2018-04-16T14:31:35.315Z,163694.78
2018-04-16T14:34:02.891Z,163774.36
2018-04-16T14:36:30.626Z,163676.41
2018-04-16T14:38:58.189Z,163377.27
2018-04-16T14:41:25.745Z,163381.23
2018-04-16T14:43:53.343Z,163308.33
2018-04-16T14:46:20.909Z,163383.20
2018-04-16T14:48:48.824Z,163257.70
2018-04-16T14:51:16.377Z,163280.70
2018-04-16T14:53:43.924Z,163205.84
2018-04-16T14:56:11.490Z,163215.05
2018-04-16T14:58:39.265Z,163212.44
2018-04-16T15:01:06.857Z,163202.56
2018-04-16T15:03:34.475Z,163221.58
2018-04-16T15:06:02.290Z,163258.36
2018-04-16T15:08:30.270Z,163264.95
2018-04-16T15:10:57.831Z,163171.03
2018-04-16T15:13:25.379Z,163368.70
2018-04-16T15:15:53.196Z,163420.05
2018-04-16T15:18:21.126Z,163315.52
2018-04-16T15:20:48.854Z,163273.50
2018-04-16T15:23:16.418Z,163232.09
2018-04-16T15:25:44.121Z,163349.03
2018-04-16T15:28:11.843Z,163405.55
2018-04-16T15:30:39.400Z,163178.27
2018-04-16T15:33:06.976Z,163150.70
2018-04-16T15:35:34.512Z,163189.44
2018-04-16T15:38:02.106Z,163157.25
2018-04-16T15:40:29.723Z,163081.70
2018-04-16T15:42:57.456Z,163087.58
2018-04-16T15:45:25.024Z,163101.41
2018-04-16T15:47:52.558Z,163150.05
2018-04-16T15:50:20.281Z,163105.34
2018-04-16T15:52:47.841Z,163182.19
2018-04-16T15:55:15.404Z,163107.95
2018-04-16T15:57:42.966Z,163261.03
2018-04-16T16:00:10.551Z,163252.47
2018-04-16T16:02:38.090Z,163105.34
2018-04-16T16:05:05.655Z,163008.19
2018-04-16T16:07:33.672Z,163071.19
2018-04-16T16:10:01.226Z,162994.41
2018-04-16T16:12:28.777Z,163048.20
2018-04-16T16:14:56.378Z,163199.30
2018-04-16T16:17:24.163Z,163140.19
2018-04-16T16:19:51.712Z,163163.19
2018-04-16T16:22:19.344Z,163248.55
2018-04-16T16:24:46.896Z,163148.03
2018-04-16T16:27:14.665Z,163104.69
2018-04-16T16:29:42.231Z,163088.28
2018-04-16T16:32:10.015Z,163220.94
2018-04-16T16:34:37.604Z,163171.69
2018-04-16T16:37:05.185Z,163123.69
2018-04-16T16:39:32.865Z,163037.03
2018-04-16T16:42:00.435Z,163053.48
2018-04-16T16:44:27.993Z,163043.62
2018-04-16T16:46:55.580Z,162944.53
2018-04-16T16:49:23.124Z,162976.00
2018-04-16T16:51:50.909Z,162932.70
2018-04-16T16:54:18.483Z,162901.19
2018-04-16T16:56:46.059Z,162941.91
2018-04-16T16:59:13.630Z,162895.95
2018-04-16T17:01:41.405Z,162881.53
2018-04-16T17:04:08.970Z,162870.38
2018-04-16T17:06:36.523Z,162832.28
2018-04-16T17:09:04.671Z,162818.45
2018-04-16T17:11:32.417Z,162861.17
2018-04-16T17:14:00.008Z,162814.53
2018-04-16T17:16:27.579Z,162828.30
2018-04-16T17:18:55.164Z,162801.41
2018-04-16T17:21:22.733Z,162781.06
2018-04-16T17:23:50.590Z,162754.17
2018-04-16T17:26:18.181Z,162741.70
2018-04-16T17:28:45.759Z,162722.06
2018-04-16T17:31:13.310Z,162678.09
2018-04-16T17:33:40.892Z,162711.56
2018-04-16T17:36:08.435Z,162694.47
2018-04-16T17:38:36.488Z,162668.25
2018-04-16T17:41:04.138Z,162598.06
2018-04-16T17:43:31.695Z,162625.64
2018-04-16T17:45:59.309Z,162611.87
2018-04-16T17:48:26.915Z,162621.02
2018-04-16T17:50:54.508Z,162663.02
2018-04-16T17:53:22.077Z,162565.97
2018-04-16T17:55:49.779Z,162520.00
2018-04-16T17:58:17.339Z,162485.25
2018-04-16T18:00:44.889Z,162523.27
2018-04-16T18:03:12.473Z,162472.80
2018-04-16T18:05:40.077Z,162474.09
2018-04-16T18:08:07.836Z,162423.62
2018-04-16T18:10:35.376Z,162417.11
2018-04-16T18:13:02.942Z,162398.08
2018-04-16T18:15:30.762Z,162375.13
2018-04-16T18:17:58.454Z,162406.61
2018-04-16T18:20:26.002Z,162381.70
2018-04-16T18:22:53.791Z,162354.80
2018-04-16T18:25:21.392Z,162335.17
2018-04-16T18:27:48.931Z,162293.20
2018-04-16T18:30:16.510Z,162241.45
2018-04-16T18:32:44.092Z,162244.06
2018-04-16T18:35:11.716Z,162210.63
2018-04-16T18:37:39.374Z,162177.86
2018-04-16T18:40:06.927Z,162176.56
2018-04-16T18:42:34.508Z,162118.25
2018-04-16T18:45:02.538Z,162063.91
2018-04-16T18:47:30.086Z,162056.69
2018-04-16T18:49:57.808Z,162003.66
2018-04-16T18:52:25.505Z,162028.53
2018-04-16T18:54:53.051Z,161993.83
2018-04-16T18:57:20.644Z,162001.00
2018-04-16T18:59:48.652Z,161974.81
2018-04-16T19:02:16.253Z,161973.52
2018-04-16T19:04:43.818Z,161952.59
2018-04-16T19:07:11.382Z,161926.38
2018-04-16T19:09:39.143Z,161904.81
2018-04-16T19:12:06.701Z,161891.72
2018-04-16T19:14:34.703Z,161879.28
2018-04-16T19:17:02.328Z,161851.05
2018-04-16T19:19:29.884Z,161833.39
2018-04-16T19:21:57.780Z,161818.34
2018-04-16T19:24:25.531Z,161744.36
2018-04-16T19:26:58.965Z,161775.78
2018-04-16T19:29:26.541Z,161692.67
2018-04-16T19:31:54.097Z,161688.77
2018-04-16T19:34:27.506Z,161687.47
2018-04-16T19:36:55.068Z,161657.98
2018-04-16T19:39:22.606Z,161597.16
2018-04-16T19:41:55.695Z,161592.59
2018-04-16T19:44:23.272Z,161571.66
2018-04-16T19:46:50.823Z,161544.84
2018-04-16T19:49:24.066Z,161526.55
2018-04-16T19:51:51.610Z,161512.78
2018-04-16T19:54:19.192Z,161465.03
2018-04-16T19:56:52.856Z,161415.94
2018-04-16T19:59:20.591Z,161406.83
2018-04-16T20:01:53.707Z,161401.56
2018-04-16T20:04:21.259Z,161385.89
2018-04-16T20:06:48.827Z,161370.87
2018-04-16T20:09:16.408Z,161368.92
2018-04-16T20:11:44.163Z,161359.09
2018-04-16T20:14:11.799Z,161348.63
2018-04-16T20:16:39.504Z,161332.97
2018-04-16T20:19:07.049Z,161306.83
2018-04-16T20:21:34.900Z,161279.33
2018-04-16T20:24:02.438Z,161265.63
2018-04-16T20:26:30.248Z,161240.13
2018-04-16T20:28:57.950Z,161222.50
2018-04-16T20:31:25.654Z,161208.09
2018-04-16T20:33:53.195Z,161185.27
2018-04-16T20:36:20.776Z,161166.94
2018-04-16T20:38:48.349Z,161153.22
2018-04-16T20:41:15.901Z,161138.86
2018-04-16T20:43:43.904Z,161131.00
2018-04-16T20:46:11.543Z,161118.59
2018-04-16T20:48:39.097Z,161108.12
2018-04-16T20:51:06.837Z,161095.08
2018-04-16T20:53:34.380Z,161081.36
2018-04-16T20:56:01.926Z,161072.84
2018-04-16T20:58:29.508Z,161053.28
2018-04-16T21:00:57.064Z,161061.09
2018-04-16T21:03:24.669Z,161043.48
2018-04-16T21:05:52.392Z,161013.41
2018-04-16T21:08:19.945Z,160999.70
2018-04-16T21:10:47.799Z,160995.14
2018-04-16T21:13:15.342Z,160978.78
2018-04-16T21:15:42.893Z,160975.48
2018-04-16T21:18:10.468Z,160953.97
2018-04-16T21:20:38.194Z,160946.12
2018-04-16T21:23:05.997Z,160935.02
2018-04-16T21:25:33.553Z,160953.28
2018-04-16T21:28:01.099Z,160923.25
2018-04-16T21:30:28.733Z,160902.34
2018-04-16T21:32:56.289Z,160888.00
2018-04-16T21:35:23.891Z,160863.84
2018-04-16T21:37:51.716Z,160850.13
2018-04-16T21:40:19.296Z,160868.38
2018-04-16T21:42:46.838Z,160831.83
2018-04-16T21:45:14.399Z,160808.37
2018-04-16T21:47:41.977Z,160793.97
2018-04-16T21:50:09.555Z,160797.92
2018-04-16T21:52:37.141Z,160820.08
2018-04-16T21:55:04.936Z,160800.52
2018-04-16T21:57:32.522Z,160804.42
2018-04-16T22:00:00.283Z,160777.02
2018-04-16T22:02:27.828Z,160755.47
2018-04-16T22:04:55.863Z,160743.06
2018-04-16T22:07:23.619Z,160745.67
2018-04-16T22:09:51.209Z,160729.38
2018-04-16T22:12:19.073Z,160733.92
2018-04-16T22:14:46.757Z,160696.72
2018-04-16T22:17:14.315Z,160681.08
2018-04-16T22:19:41.888Z,160674.58
2018-04-16T22:22:09.674Z,160662.13
2018-04-16T22:24:37.280Z,160647.13
2018-04-16T22:27:04.871Z,160641.94
2018-04-16T22:29:32.421Z,160649.09
2018-04-16T22:32:00.201Z,160647.13
2018-04-16T22:34:27.759Z,160624.30
2018-04-16T22:36:55.309Z,160606.05
2018-04-16T22:39:22.882Z,160596.25
2018-04-16T22:41:50.445Z,160593.00
2018-04-16T22:44:18.385Z,160585.81
2018-04-16T22:46:45.944Z,160581.25
2018-04-16T22:49:13.509Z,160588.41
2018-04-16T22:51:41.107Z,160571.47
2018-04-16T22:54:08.737Z,160570.17
2018-04-16T22:56:36.306Z,160537.53
2018-04-16T22:59:03.883Z,160525.80
2018-04-16T23:01:31.771Z,160516.00
2018-04-16T23:03:59.316Z,160512.09
2018-04-16T23:06:27.036Z,160514.05
2018-04-16T23:08:54.750Z,160506.91
2018-04-16T23:11:22.298Z,160502.31
2018-04-16T23:13:49.870Z,160484.06
2018-04-16T23:16:17.424Z,160478.17
2018-04-16T23:18:45.028Z,160474.28
2018-04-16T23:21:12.575Z,160460.59
2018-04-16T23:23:40.138Z,160450.80
2018-04-16T23:26:08.011Z,160448.84
2018-04-16T23:28:35.755Z,160460.59
2018-04-16T23:31:03.318Z,160439.06
2018-04-16T23:33:31.303Z,160421.47
2018-04-16T23:35:59.120Z,160409.09
2018-04-16T23:38:26.684Z,160397.34
2018-04-16T23:40:54.813Z,160388.20
2018-04-16T23:43:22.368Z,160373.88
2018-04-16T23:45:50.097Z,160368.63
2018-04-16T23:48:17.676Z,160364.69
2018-04-16T23:50:45.252Z,160368.63
2018-04-16T23:53:12.797Z,160364.69
2018-04-16T23:55:40.380Z,160352.94
2018-04-16T23:58:07.947Z,160337.95
